Time;durP1;ratioP1;P1;durP2;ratioP2;P2;SDS_P1;SDS_P2;PMS_P1;PMS_P2;Temp;Humidity;BMP_temperature;BMP_pressure;BME280_temperature;BME280_humidity;BME280_pressure;Samples;Min_cycle;Max_cycle;Signal;HPM_P1;HPM_P2
2023/07/14 00:00:07;;;;;;;7.88;3.65;;;17.00;99.90;;;;;;4992703;28;20495;-33
2023/07/14 00:02:33;;;;;;;7.55;3.63;;;17.00;99.90;;;;;;4993642;28;20062;-34
2023/07/14 00:05:00;;;;;;;6.78;3.65;;;17.00;99.90;;;;;;5000563;28;20054;-33
2023/07/14 00:07:26;;;;;;;7.65;4.03;;;17.00;99.90;;;;;;4991521;28;20061;-33
2023/07/14 00:09:52;;;;;;;7.70;3.20;;;17.00;99.90;;;;;;5006117;28;20132;-33
2023/07/14 00:12:18;;;;;;;7.53;3.58;;;17.00;99.90;;;;;;4997846;28;20140;-33
2023/07/14 00:14:45;;;;;;;7.15;3.63;;;17.00;99.90;;;;;;5003309;28;20140;-33
2023/07/14 00:17:14;;;;;;;7.38;4.60;;;16.90;99.90;;;;;;5004087;28;20046;-33
2023/07/14 00:19:40;;;;;;;5.55;3.08;;;16.90;99.90;;;;;;4995376;28;20077;-33
2023/07/14 00:22:14;;;;;;;5.88;3.50;;;16.90;99.90;;;;;;5006987;28;20129;-33
2023/07/14 00:24:44;;;;;;;5.40;3.13;;;16.80;99.90;;;;;;4991419;28;20078;-34
2023/07/14 00:27:20;;;;;;;5.35;3.15;;;16.80;99.90;;;;;;4997083;28;20038;-33
2023/07/14 00:29:46;;;;;;;6.07;3.50;;;16.80;99.90;;;;;;5000127;28;20527;-33
2023/07/14 00:32:21;;;;;;;5.80;3.20;;;16.80;99.90;;;;;;4998843;28;20559;-33
2023/07/14 00:34:47;;;;;;;6.10;3.53;;;16.70;99.90;;;;;;5006538;28;20050;-33
2023/07/14 00:37:13;;;;;;;6.35;3.15;;;16.70;99.90;;;;;;5006906;28;20050;-33
2023/07/14 00:39:40;;;;;;;6.00;3.25;;;16.60;99.90;;;;;;5004831;28;20526;-33
2023/07/14 00:42:12;;;;;;;5.28;3.13;;;16.60;99.90;;;;;;5009089;28;20053;-33
2023/07/14 00:44:38;;;;;;;8.55;3.58;;;16.50;99.90;;;;;;4985233;28;20042;-33
2023/07/14 00:47:16;;;;;;;4.50;2.95;;;16.50;99.90;;;;;;4998818;28;20116;-33
2023/07/14 00:49:42;;;;;;;5.90;3.42;;;16.50;99.90;;;;;;4996974;28;20522;-33
2023/07/14 00:52:35;;;;;;;6.35;3.20;;;16.40;99.90;;;;;;5002108;28;20041;-33
2023/07/14 00:55:22;;;;;;;5.07;3.08;;;16.40;99.90;;;;;;5002510;28;20061;-33
2023/07/14 00:57:48;;;;;;;4.38;2.78;;;16.40;99.90;;;;;;4996595;28;20061;-33
2023/07/14 01:00:24;;;;;;;3.58;2.50;;;16.30;99.90;;;;;;4997336;28;20101;-34
2023/07/14 01:02:49;;;;;;;4.57;2.78;;;16.20;99.90;;;;;;4996576;28;20054;-33
2023/07/14 01:05:15;;;;;;;6.10;2.95;;;16.20;99.90;;;;;;5008397;28;20525;-33
2023/07/14 01:07:44;;;;;;;7.03;2.80;;;16.10;99.90;;;;;;5008657;28;20050;-33
2023/07/14 01:10:15;;;;;;;6.70;3.03;;;16.10;99.90;;;;;;5005227;28;20105;-33
2023/07/14 01:12:45;;;;;;;6.97;2.78;;;16.00;99.90;;;;;;4994438;28;20054;-33
2023/07/14 01:15:11;;;;;;;4.72;3.15;;;16.00;99.90;;;;;;4989713;28;20077;-34
2023/07/14 01:17:38;;;;;;;6.63;3.28;;;16.00;99.90;;;;;;4985444;28;20082;-33
2023/07/14 01:20:09;;;;;;;5.72;3.13;;;15.90;99.90;;;;;;4982252;28;20054;-34
2023/07/14 01:22:47;;;;;;;7.20;2.90;;;15.90;99.90;;;;;;4983295;28;20061;-33
2023/07/14 01:25:23;;;;;;;5.68;2.75;;;15.80;99.90;;;;;;4986775;28;20100;-33
2023/07/14 01:27:49;;;;;;;6.85;2.65;;;15.70;99.90;;;;;;4980505;28;20187;-33
2023/07/14 01:30:16;;;;;;;4.90;2.92;;;15.60;99.90;;;;;;4978317;28;20050;-33
2023/07/14 01:32:48;;;;;;;6.30;3.75;;;15.60;99.90;;;;;;4978279;28;20062;-33
2023/07/14 01:35:16;;;;;;;5.78;2.60;;;15.50;99.90;;;;;;4965442;28;20559;-33
2023/07/14 01:37:42;;;;;;;6.63;3.30;;;15.50;99.90;;;;;;4978107;28;20057;-33
2023/07/14 01:40:12;;;;;;;7.93;3.40;;;15.40;99.90;;;;;;4978465;28;20416;-33
2023/07/14 01:42:56;;;;;;;5.20;2.95;;;15.40;99.90;;;;;;4978527;28;20049;-34
2023/07/14 01:45:26;;;;;;;3.63;2.25;;;15.40;99.90;;;;;;4980248;28;20084;-33
2023/07/14 01:47:55;;;;;;;7.60;3.58;;;15.40;99.90;;;;;;4989814;28;20128;-33
2023/07/14 01:50:48;;;;;;;5.05;2.75;;;15.40;99.90;;;;;;4980683;28;20184;-33
2023/07/14 01:53:38;;;;;;;5.05;2.60;;;15.40;99.90;;;;;;4975414;28;20081;-33
2023/07/14 01:56:09;;;;;;;5.32;2.72;;;15.30;99.90;;;;;;4975434;28;20617;-33
2023/07/14 01:58:48;;;;;;;3.40;2.13;;;15.30;99.90;;;;;;4967602;28;20100;-33
2023/07/14 02:01:15;;;;;;;3.38;2.13;;;15.30;99.90;;;;;;4968386;28;20069;-33
2023/07/14 02:03:46;;;;;;;5.88;2.50;;;15.30;99.90;;;;;;4978189;28;20169;-33
2023/07/14 02:06:12;;;;;;;3.67;2.33;;;15.30;99.90;;;;;;4984055;28;20042;-33
2023/07/14 02:08:38;;;;;;;6.55;2.75;;;15.30;99.90;;;;;;4980907;28;20061;-33
2023/07/14 02:11:04;;;;;;;4.95;2.80;;;15.30;99.90;;;;;;4984177;28;20073;-33
2023/07/14 02:13:32;;;;;;;10.30;2.90;;;15.40;99.90;;;;;;4980027;28;20168;-33
2023/07/14 02:15:58;;;;;;;6.03;2.60;;;15.30;99.90;;;;;;4982657;28;20520;-33
2023/07/14 02:18:27;;;;;;;4.43;2.17;;;15.30;99.90;;;;;;4979965;28;20084;-33
2023/07/14 02:20:54;;;;;;;4.78;2.47;;;15.30;99.90;;;;;;4987125;28;20050;-33
2023/07/14 02:23:24;;;;;;;7.20;2.25;;;15.30;99.90;;;;;;4982008;28;20054;-33
2023/07/14 02:26:11;;;;;;;6.38;2.47;;;15.40;99.90;;;;;;4979239;28;20084;-33
2023/07/14 02:28:37;;;;;;;6.95;2.25;;;15.40;99.90;;;;;;4968238;28;20447;-33
2023/07/14 02:31:38;;;;;;;5.05;2.60;;;15.30;99.90;;;;;;4987035;28;20080;-33
2023/07/14 02:34:04;;;;;;;5.32;2.58;;;15.30;99.90;;;;;;4972204;28;20054;-33
2023/07/14 02:36:38;;;;;;;5.28;2.33;;;15.30;99.90;;;;;;4983896;28;20538;-33
2023/07/14 02:39:04;;;;;;;7.60;2.50;;;15.30;99.90;;;;;;4980739;28;20057;-33
2023/07/14 02:41:36;;;;;;;5.13;2.60;;;15.30;99.90;;;;;;4979220;28;20054;-33
2023/07/14 02:44:05;;;;;;;4.03;2.50;;;15.30;99.90;;;;;;4978805;28;20156;-33
2023/07/14 02:46:30;;;;;;;7.85;2.90;;;15.30;99.90;;;;;;4983940;28;20076;-34
2023/07/14 02:48:56;;;;;;;5.35;2.25;;;15.30;99.90;;;;;;4981028;28;20511;-33
2023/07/14 02:51:22;;;;;;;5.18;2.25;;;15.30;99.90;;;;;;4982935;28;20057;-34
2023/07/14 02:53:48;;;;;;;7.78;2.10;;;15.30;99.90;;;;;;4980682;28;20116;-33
2023/07/14 02:56:13;;;;;;;5.88;1.80;;;15.30;99.90;;;;;;4980481;28;20050;-33
2023/07/14 02:58:39;;;;;;;5.90;2.20;;;15.30;99.90;;;;;;4969455;28;20051;-33
2023/07/14 03:01:05;;;;;;;4.43;2.08;;;15.30;99.90;;;;;;4972736;28;22146;-34
2023/07/14 03:03:33;;;;;;;4.10;2.25;;;15.30;99.90;;;;;;4992002;28;20058;-33
2023/07/14 03:05:59;;;;;;;4.47;2.45;;;15.30;99.90;;;;;;4984497;28;20548;-33
2023/07/14 03:08:29;;;;;;;5.30;2.17;;;15.30;99.90;;;;;;4981571;28;20054;-33
2023/07/14 03:10:58;;;;;;;4.18;1.92;;;15.20;99.90;;;;;;4987042;28;20081;-33
2023/07/14 03:13:24;;;;;;;4.60;2.20;;;15.20;99.90;;;;;;4983716;28;20049;-33
2023/07/14 03:15:50;;;;;;;5.85;2.20;;;15.20;99.90;;;;;;4985368;28;20132;-34
2023/07/14 03:18:16;;;;;;;5.25;2.13;;;15.20;99.90;;;;;;4983224;28;20140;-33
2023/07/14 03:20:42;;;;;;;6.53;2.58;;;15.20;99.90;;;;;;4971273;28;20058;-33
2023/07/14 03:23:08;;;;;;;4.03;1.98;;;15.20;99.90;;;;;;4984142;28;20053;-33
2023/07/14 03:25:34;;;;;;;5.65;2.50;;;15.20;99.90;;;;;;4996561;28;20100;-33
2023/07/14 03:28:03;;;;;;;6.10;2.33;;;15.20;99.90;;;;;;4980095;28;20053;-33
2023/07/14 03:30:36;;;;;;;3.72;2.25;;;15.20;99.90;;;;;;4981899;28;20496;-33
2023/07/14 03:33:02;;;;;;;7.13;2.60;;;15.20;99.90;;;;;;4976213;28;20050;-33
2023/07/14 03:35:28;;;;;;;4.93;2.35;;;15.20;99.90;;;;;;4969899;28;20065;-33
2023/07/14 03:37:54;;;;;;;4.32;2.25;;;15.20;99.90;;;;;;4973483;28;20177;-33
2023/07/14 03:40:19;;;;;;;5.93;2.85;;;15.20;99.90;;;;;;4976963;28;20057;-33
2023/07/14 03:42:45;;;;;;;5.47;2.65;;;15.30;99.90;;;;;;4976773;28;20547;-33
2023/07/14 03:45:11;;;;;;;10.52;2.90;;;15.30;99.90;;;;;;4973367;28;20057;-33
2023/07/14 03:47:39;;;;;;;4.65;2.90;;;15.30;99.90;;;;;;4980533;28;20566;-33
2023/07/14 03:50:06;;;;;;;5.60;3.13;;;15.40;99.90;;;;;;4975005;28;20563;-33
2023/07/14 03:52:32;;;;;;;5.85;2.80;;;15.30;99.90;;;;;;4981540;28;20065;-34
2023/07/14 03:54:57;;;;;;;4.22;2.45;;;15.40;99.90;;;;;;4973155;28;20956;-33
2023/07/14 03:57:23;;;;;;;5.75;2.85;;;15.30;99.90;;;;;;4973110;28;20050;-33
2023/07/14 03:59:49;;;;;;;4.22;2.92;;;15.30;99.90;;;;;;4975834;28;20507;-34
2023/07/14 04:02:14;;;;;;;4.80;2.60;;;15.40;99.90;;;;;;4989825;28;20054;-34
2023/07/14 04:04:40;;;;;;;6.47;3.20;;;15.40;99.90;;;;;;4982099;28;20188;-33
2023/07/14 04:07:07;;;;;;;5.95;2.85;;;15.50;99.90;;;;;;4979441;28;20073;-33
2023/07/14 04:09:33;;;;;;;8.68;3.08;;;15.40;99.90;;;;;;4989378;28;20050;-33
2023/07/14 04:11:58;;;;;;;6.82;3.60;;;15.50;99.90;;;;;;4976121;28;20050;-33
2023/07/14 04:14:24;;;;;;;6.45;3.28;;;15.50;99.90;;;;;;4982353;28;20455;-33
2023/07/14 04:16:50;;;;;;;4.93;2.95;;;15.50;99.90;;;;;;4982099;28;20066;-33
2023/07/14 04:19:16;;;;;;;6.10;3.03;;;15.50;99.90;;;;;;4989753;28;20405;-34
2023/07/14 04:21:41;;;;;;;7.00;3.67;;;15.50;99.90;;;;;;4986941;28;20054;-34
2023/07/14 04:24:07;;;;;;;6.28;3.45;;;15.50;99.90;;;;;;4976132;28;20045;-34
2023/07/14 04:26:33;;;;;;;8.60;3.97;;;15.50;99.90;;;;;;4982962;28;20135;-33
2023/07/14 04:28:59;;;;;;;7.03;3.80;;;15.60;99.90;;;;;;4981600;28;20050;-33
2023/07/14 04:31:25;;;;;;;4.88;3.20;;;15.60;99.90;;;;;;4990747;28;20613;-34
2023/07/14 04:33:51;;;;;;;6.05;3.45;;;15.60;99.90;;;;;;4976991;28;20201;-33
2023/07/14 04:36:17;;;;;;;6.45;3.30;;;15.60;99.90;;;;;;4984858;28;20146;-33
2023/07/14 04:39:00;;;;;;;7.50;4.00;;;15.60;99.90;;;;;;4983186;28;20042;-34
2023/07/14 04:41:26;;;;;;;9.88;3.58;;;15.70;99.90;;;;;;4986152;28;20073;-34
2023/07/14 04:43:51;;;;;;;7.72;3.33;;;15.80;99.90;;;;;;4997545;28;20453;-33
2023/07/14 04:46:17;;;;;;;9.05;3.80;;;15.80;99.90;;;;;;4988488;28;20104;-34
2023/07/14 04:48:44;;;;;;;7.07;3.83;;;15.90;99.90;;;;;;4997528;28;20092;-33
2023/07/14 04:51:10;;;;;;;6.60;3.58;;;15.90;99.90;;;;;;5008930;28;20570;-33
2023/07/14 04:53:36;;;;;;;5.63;3.17;;;15.90;99.90;;;;;;4995812;28;20081;-33
2023/07/14 04:56:01;;;;;;;5.53;3.47;;;15.90;99.90;;;;;;5000783;28;20060;-33
2023/07/14 04:58:27;;;;;;;5.80;3.47;;;15.90;99.90;;;;;;4997995;28;20527;-34
2023/07/14 05:00:53;;;;;;;7.20;4.43;;;15.90;99.90;;;;;;4998675;28;20054;-33
2023/07/14 05:03:19;;;;;;;5.50;3.70;;;15.90;99.90;;;;;;4989801;28;20576;-33
2023/07/14 05:05:45;;;;;;;9.25;4.50;;;15.90;99.90;;;;;;4992836;28;20061;-33
2023/07/14 05:08:11;;;;;;;7.80;4.13;;;15.90;99.90;;;;;;4996082;28;20516;-33
2023/07/14 05:10:38;;;;;;;7.72;3.97;;;15.80;99.90;;;;;;5002352;28;20053;-33
2023/07/14 05:13:04;;;;;;;7.07;3.65;;;15.80;99.90;;;;;;4997213;28;20046;-33
2023/07/14 05:15:30;;;;;;;6.57;3.63;;;15.80;99.90;;;;;;4994463;28;20092;-33
2023/07/14 05:17:56;;;;;;;7.03;3.85;;;15.80;99.90;;;;;;5002520;28;20054;-34
2023/07/14 05:20:23;;;;;;;10.75;5.40;;;15.90;99.90;;;;;;4983780;28;20050;-33
2023/07/14 05:22:51;;;;;;;8.48;3.85;;;15.90;99.90;;;;;;4999661;28;20041;-33
2023/07/14 05:25:17;;;;;;;13.10;4.53;;;16.00;99.90;;;;;;5008376;28;20050;-34
2023/07/14 05:27:44;;;;;;;8.23;4.68;;;16.00;99.90;;;;;;4994202;28;20533;-34
2023/07/14 05:30:16;;;;;;;7.15;3.78;;;16.10;99.90;;;;;;4991704;28;20050;-33
2023/07/14 05:32:43;;;;;;;7.35;4.18;;;16.10;99.90;;;;;;4983031;28;20061;-33
2023/07/14 05:35:10;;;;;;;6.65;4.18;;;16.10;99.90;;;;;;4987456;28;20385;-33
2023/07/14 05:37:35;;;;;;;7.38;4.82;;;16.20;99.90;;;;;;4995108;28;20141;-33
2023/07/14 05:40:04;;;;;;;6.93;4.40;;;16.20;99.90;;;;;;4986661;28;20057;-33
2023/07/14 05:42:30;;;;;;;5.95;4.35;;;16.30;99.90;;;;;;4987791;28;20077;-33
2023/07/14 05:44:56;;;;;;;9.82;5.10;;;16.40;99.90;;;;;;4987804;28;20046;-33
2023/07/14 05:47:24;;;;;;;8.20;4.80;;;16.40;99.90;;;;;;4974633;28;20104;-33
2023/07/14 05:49:50;;;;;;;11.13;5.07;;;16.50;99.90;;;;;;4983832;28;20054;-33
2023/07/14 05:52:17;;;;;;;9.30;4.60;;;16.50;99.90;;;;;;4988045;28;20416;-33
2023/07/14 05:54:43;;;;;;;10.13;4.95;;;16.60;99.90;;;;;;4989448;28;20467;-33
2023/07/14 05:57:10;;;;;;;8.65;4.70;;;16.60;99.90;;;;;;4991553;28;20079;-33
2023/07/14 05:59:36;;;;;;;11.13;4.32;;;16.70;99.90;;;;;;4996057;28;20077;-33
2023/07/14 06:02:01;;;;;;;8.32;4.88;;;16.70;99.90;;;;;;4998770;28;20145;-34
2023/07/14 06:04:27;;;;;;;13.02;5.57;;;16.80;99.90;;;;;;4980977;28;20420;-33
2023/07/14 06:06:53;;;;;;;9.07;5.10;;;16.70;99.90;;;;;;4990288;28;20088;-34
2023/07/14 06:09:18;;;;;;;6.68;4.68;;;16.80;99.90;;;;;;5002740;28;20508;-34
2023/07/14 06:11:44;;;;;;;7.50;4.75;;;16.80;99.90;;;;;;4981246;28;20056;-34
2023/07/14 06:14:11;;;;;;;8.93;5.63;;;16.80;99.90;;;;;;4989470;28;20494;-34
2023/07/14 06:16:37;;;;;;;8.93;5.30;;;16.90;99.90;;;;;;4994523;28;20110;-34
2023/07/14 06:19:03;;;;;;;10.98;5.43;;;17.00;99.90;;;;;;4990476;28;20451;-34
2023/07/14 06:21:29;;;;;;;6.80;5.03;;;17.10;99.90;;;;;;4983476;28;20097;-34
2023/07/14 06:23:54;;;;;;;10.25;5.57;;;17.10;99.90;;;;;;4983074;28;20634;-35
2023/07/14 06:26:20;;;;;;;9.05;4.60;;;17.10;99.90;;;;;;4981464;28;20803;-34
2023/07/14 06:28:46;;;;;;;6.93;4.57;;;17.20;99.90;;;;;;4995735;28;20500;-35
2023/07/14 06:31:14;;;;;;;9.85;4.85;;;17.30;99.90;;;;;;4993787;28;20052;-35
2023/07/14 06:33:40;;;;;;;8.25;4.65;;;17.30;99.90;;;;;;5003300;28;20061;-35
2023/07/14 06:36:06;;;;;;;8.27;4.68;;;17.30;99.90;;;;;;4989146;28;20193;-34
2023/07/14 06:38:34;;;;;;;10.07;4.25;;;17.40;99.90;;;;;;4988942;28;20074;-34
2023/07/14 06:41:03;;;;;;;5.47;2.75;;;17.40;99.90;;;;;;5002972;28;20050;-34
2023/07/14 06:43:31;;;;;;;4.97;2.83;;;17.50;99.90;;;;;;4991965;28;20531;-35
2023/07/14 06:45:57;;;;;;;7.07;3.30;;;17.60;99.90;;;;;;4998850;28;20054;-35
2023/07/14 06:48:24;;;;;;;5.47;3.22;;;17.60;99.90;;;;;;4993672;28;20045;-35
2023/07/14 06:50:50;;;;;;;5.07;2.80;;;17.70;99.90;;;;;;4996206;28;21039;-35
2023/07/14 06:53:17;;;;;;;7.53;2.90;;;17.70;99.90;;;;;;4996949;28;20396;-33
2023/07/14 06:55:43;;;;;;;9.38;3.40;;;17.80;99.90;;;;;;4989684;28;20060;-34
2023/07/14 06:58:10;;;;;;;5.30;2.80;;;17.90;99.90;;;;;;4987470;28;20046;-34
2023/07/14 07:00:36;;;;;;;7.55;2.47;;;18.00;99.90;;;;;;5002637;28;20053;-34
2023/07/14 07:03:03;;;;;;;4.75;2.55;;;18.10;99.90;;;;;;4978634;28;20483;-34
2023/07/14 07:05:30;;;;;;;6.70;2.97;;;18.20;99.90;;;;;;4985304;28;20203;-34
2023/07/14 07:07:56;;;;;;;4.80;2.50;;;18.30;99.90;;;;;;4996832;28;20046;-34
2023/07/14 07:10:21;;;;;;;5.00;2.85;;;18.40;99.90;;;;;;4979803;28;20101;-34
2023/07/14 07:12:47;;;;;;;3.75;1.52;;;18.40;99.90;;;;;;4991831;28;20073;-35
2023/07/14 07:15:13;;;;;;;5.35;1.98;;;18.50;99.90;;;;;;4993239;28;20133;-35
2023/07/14 07:17:41;;;;;;;3.90;1.42;;;18.50;99.90;;;;;;4990908;28;20128;-35
2023/07/14 07:20:08;;;;;;;5.05;1.88;;;18.50;99.90;;;;;;4997196;28;20042;-34
2023/07/14 07:22:35;;;;;;;5.35;1.50;;;18.60;99.90;;;;;;4993541;28;20038;-34
2023/07/14 07:25:00;;;;;;;3.92;2.03;;;18.60;99.90;;;;;;4990364;28;20134;-34
2023/07/14 07:27:27;;;;;;;6.30;1.50;;;18.70;99.90;;;;;;4996559;28;20171;-35
2023/07/14 07:29:53;;;;;;;5.97;2.40;;;18.70;99.90;;;;;;4995770;28;20569;-34
2023/07/14 07:32:18;;;;;;;5.38;1.88;;;18.80;99.90;;;;;;4977344;28;20555;-34
2023/07/14 07:34:44;;;;;;;4.95;1.58;;;18.70;99.90;;;;;;4988976;28;20050;-35
2023/07/14 07:37:10;;;;;;;4.20;1.50;;;18.80;99.90;;;;;;4996272;28;20089;-34
2023/07/14 07:39:37;;;;;;;3.97;1.70;;;18.80;99.90;;;;;;4987452;28;20091;-34
2023/07/14 07:42:04;;;;;;;3.45;1.50;;;18.80;99.90;;;;;;4990021;28;20058;-35
2023/07/14 07:44:30;;;;;;;4.55;1.63;;;18.80;99.90;;;;;;5002192;28;20188;-35
2023/07/14 07:46:56;;;;;;;5.97;1.52;;;18.90;99.90;;;;;;4991940;28;20069;-34
2023/07/14 07:49:21;;;;;;;5.90;1.65;;;19.00;99.90;;;;;;5001123;28;20092;-35
2023/07/14 07:51:47;;;;;;;5.03;1.35;;;19.00;99.90;;;;;;4996189;28;20104;-34
2023/07/14 07:54:13;;;;;;;3.97;1.50;;;19.00;99.90;;;;;;4994126;28;20050;-35
2023/07/14 07:56:43;;;;;;;4.63;1.40;;;19.10;99.90;;;;;;4996889;28;20061;-35
2023/07/14 07:59:17;;;;;;;3.78;1.60;;;19.20;99.90;;;;;;4994042;28;20329;-34
2023/07/14 08:01:45;;;;;;;3.75;1.60;;;19.30;99.90;;;;;;4995026;28;20096;-34
2023/07/14 08:04:12;;;;;;;4.45;1.60;;;19.30;99.90;;;;;;4999954;28;20405;-33
2023/07/14 08:06:38;;;;;;;2.75;1.13;;;19.30;99.90;;;;;;5010880;28;20500;-34
2023/07/14 08:09:04;;;;;;;3.95;1.40;;;19.50;99.90;;;;;;4994960;28;20081;-35
2023/07/14 08:11:30;;;;;;;4.25;1.30;;;19.70;99.90;;;;;;4986173;28;20145;-34
2023/07/14 08:14:01;;;;;;;5.47;1.30;;;19.90;99.90;;;;;;4999795;28;20153;-34
2023/07/14 08:16:27;;;;;;;6.05;1.90;;;20.00;99.90;;;;;;4998011;28;20054;-34
2023/07/14 08:18:53;;;;;;;2.88;1.35;;;20.20;99.90;;;;;;5002889;28;20511;-34
2023/07/14 08:21:19;;;;;;;2.72;1.27;;;20.30;99.90;;;;;;4997651;28;20042;-35
2023/07/14 08:23:44;;;;;;;5.18;1.33;;;20.40;99.90;;;;;;5000903;28;20057;-34
2023/07/14 08:26:10;;;;;;;1.98;1.05;;;20.50;99.90;;;;;;5000720;28;20451;-34
2023/07/14 08:28:36;;;;;;;4.07;1.10;;;20.60;99.90;;;;;;5002080;28;20078;-34
2023/07/14 08:31:06;;;;;;;2.53;1.23;;;20.70;99.90;;;;;;4997341;28;20184;-34
2023/07/14 08:33:33;;;;;;;4.03;1.40;;;20.70;99.90;;;;;;5007565;28;20140;-34
2023/07/14 08:36:02;;;;;;;6.20;1.65;;;20.70;99.90;;;;;;4999724;28;20061;-34
2023/07/14 08:38:30;;;;;;;4.32;1.33;;;20.70;99.90;;;;;;4999768;28;20072;-34
2023/07/14 08:40:59;;;;;;;4.30;1.50;;;20.80;99.90;;;;;;4998686;28;20054;-34
2023/07/14 08:43:59;;;;;;;5.30;2.20;;;20.90;99.90;;;;;;5001567;28;20111;-34
2023/07/14 08:46:37;;;;;;;3.55;1.50;;;21.00;99.90;;;;;;5005658;28;20054;-34
2023/07/14 08:49:22;;;;;;;5.05;1.52;;;20.90;99.90;;;;;;5011662;28;20057;-34
2023/07/14 08:51:55;;;;;;;4.78;1.20;;;20.80;99.90;;;;;;4999397;28;20145;-34
2023/07/14 08:54:24;;;;;;;3.30;1.30;;;20.70;99.90;;;;;;4999386;28;20148;-34
2023/07/14 08:56:52;;;;;;;2.15;1.27;;;20.80;99.90;;;;;;4997316;28;20062;-34
2023/07/14 08:59:39;;;;;;;4.18;1.60;;;20.90;99.90;;;;;;4996130;28;20531;-34
2023/07/14 09:02:41;;;;;;;2.83;1.10;;;21.10;99.90;;;;;;5004649;28;20100;-34
2023/07/14 09:05:27;;;;;;;5.97;1.42;;;21.20;99.90;;;;;;4997240;28;20519;-34
2023/07/14 09:07:54;;;;;;;2.28;1.10;;;21.40;99.90;;;;;;5004010;28;20496;-35
2023/07/14 09:10:34;;;;;;;3.45;1.40;;;21.60;99.90;;;;;;5006100;28;20054;-35
2023/07/14 09:13:15;;;;;;;4.32;1.15;;;21.80;99.90;;;;;;5001108;28;20050;-35
2023/07/14 09:15:42;;;;;;;3.63;1.63;;;21.70;99.90;;;;;;4985210;28;20055;-37
2023/07/14 09:18:35;;;;;;;2.65;1.05;;;21.80;99.90;;;;;;4999984;28;20304;-34
2023/07/14 09:21:01;;;;;;;4.32;1.45;;;21.90;99.90;;;;;;5013957;28;20054;-35
2023/07/14 09:23:54;;;;;;;5.53;1.40;;;22.00;99.90;;;;;;5004436;28;20073;-34
2023/07/14 09:26:42;;;;;;;2.42;1.15;;;22.20;99.90;;;;;;4994641;28;20084;-34
2023/07/14 09:29:24;;;;;;;3.03;1.13;;;22.30;99.90;;;;;;5002040;28;20054;-35
2023/07/14 09:32:11;;;;;;;4.53;1.30;;;22.30;99.90;;;;;;4993466;28;20153;-35
2023/07/14 09:34:48;;;;;;;2.75;1.23;;;22.30;99.90;;;;;;5001052;28;20668;-34
2023/07/14 09:37:20;;;;;;;2.42;1.30;;;22.30;99.90;;;;;;4995184;28;20522;-34
2023/07/14 09:39:47;;;;;;;2.85;1.55;;;22.30;99.90;;;;;;5004879;28;20153;-35
2023/07/14 09:42:38;;;;;;;3.13;1.60;;;22.30;99.90;;;;;;4990154;28;20518;-34
2023/07/14 09:45:16;;;;;;;3.80;1.23;;;22.20;99.90;;;;;;4997264;28;20583;-34
2023/07/14 09:47:44;;;;;;;4.60;1.70;;;22.20;99.90;;;;;;5003581;28;20541;-34
2023/07/14 09:50:16;;;;;;;4.32;1.48;;;22.30;99.90;;;;;;4988585;28;20152;-35
2023/07/14 09:52:51;;;;;;;3.67;1.35;;;22.50;99.90;;;;;;5007621;28;20492;-34
2023/07/14 09:55:19;;;;;;;3.33;1.30;;;22.60;99.90;;;;;;4995488;28;20054;-34
2023/07/14 09:57:46;;;;;;;3.38;1.60;;;22.70;99.90;;;;;;4998273;28;20126;-35
2023/07/14 10:00:24;;;;;;;3.80;1.70;;;22.80;99.90;;;;;;5008352;28;20057;-34
2023/07/14 10:03:02;;;;;;;4.07;1.60;;;22.90;99.90;;;;;;4994115;28;20046;-34
2023/07/14 10:05:51;;;;;;;2.40;1.23;;;22.90;99.90;;;;;;4996858;28;20827;-34
2023/07/14 10:08:33;;;;;;;3.83;1.55;;;22.80;99.90;;;;;;4993009;28;21724;-34
2023/07/14 10:11:17;;;;;;;4.45;1.58;;;22.80;99.90;;;;;;4997215;28;20045;-34
2023/07/14 10:13:49;;;;;;;4.30;2.00;;;22.70;99.90;;;;;;4993068;28;20149;-34
2023/07/14 10:16:16;;;;;;;3.50;1.70;;;22.70;99.90;;;;;;4996261;28;20062;-34
2023/07/14 10:18:53;;;;;;;4.63;1.90;;;22.80;99.90;;;;;;4988543;28;20060;-34
2023/07/14 10:21:28;;;;;;;3.20;1.98;;;23.10;99.90;;;;;;4988760;28;22160;-34
2023/07/14 10:23:58;;;;;;;3.17;1.65;;;23.20;99.90;;;;;;4994783;28;20056;-34
2023/07/14 10:26:28;;;;;;;3.88;1.63;;;23.10;99.90;;;;;;4992590;28;20041;-34
2023/07/14 10:28:56;;;;;;;5.65;1.63;;;23.10;99.90;;;;;;4993924;28;20404;-34
2023/07/14 10:31:39;;;;;;;3.85;1.73;;;23.10;99.90;;;;;;4995402;28;20046;-34
2023/07/14 10:34:23;;;;;;;5.00;1.38;;;23.20;99.90;;;;;;4980065;28;20039;-34
2023/07/14 10:36:52;;;;;;;3.90;1.77;;;23.20;99.90;;;;;;4997796;28;20086;-35
2023/07/14 10:39:45;;;;;;;4.38;1.63;;;23.10;99.90;;;;;;4996236;28;20488;-34
2023/07/14 10:42:15;;;;;;;;;;;23.10;99.90;;;;;;4998008;28;20788;-34
2023/07/14 10:44:43;;;;;;;5.32;2.20;;;23.20;99.90;;;;;;4995599;28;20000;-34
2023/07/14 10:47:36;;;;;;;2.67;1.75;;;23.20;99.90;;;;;;4996086;28;20053;-34
2023/07/14 10:50:14;;;;;;;3.42;1.83;;;23.30;99.90;;;;;;4994412;28;20050;-34
2023/07/14 10:52:43;;;;;;;4.40;2.15;;;23.20;99.90;;;;;;5005582;28;20053;-34
2023/07/14 10:55:15;;;;;;;6.95;2.22;;;23.10;99.90;;;;;;4995120;28;20056;-34
2023/07/14 10:57:47;;;;;;;3.95;2.28;;;23.20;99.90;;;;;;4996059;28;20128;-34
2023/07/14 11:00:29;;;;;;;;;;;23.30;99.90;;;;;;4999117;28;20050;-34
2023/07/14 11:03:26;;;;;;;6.72;2.47;;;23.40;99.90;;;;;;4993342;28;20379;-34
2023/07/14 11:06:21;;;;;;;5.43;2.45;;;23.40;99.90;;;;;;4989799;28;20050;-34
2023/07/14 11:08:52;;;;;;;6.45;1.90;;;23.70;99.90;;;;;;4996146;28;20046;-34
2023/07/14 11:11:23;;;;;;;3.47;1.80;;;23.80;99.90;;;;;;5005271;28;20050;-34
2023/07/14 11:14:04;;;;;;;4.78;1.90;;;24.00;99.90;;;;;;4992183;28;20504;-34
2023/07/14 11:16:44;;;;;;;4.03;1.60;;;24.20;99.90;;;;;;5006096;28;20057;-34
2023/07/14 11:19:42;;;;;;;8.50;2.35;;;24.20;99.90;;;;;;4995897;28;20775;-34
2023/07/14 11:22:16;;;;;;;5.40;2.22;;;24.20;99.90;;;;;;4996286;28;20058;-34
2023/07/14 11:25:00;;;;;;;4.82;2.22;;;24.10;99.90;;;;;;4997341;28;20049;-34
2023/07/14 11:27:34;;;;;;;5.30;2.78;;;24.20;99.90;;;;;;4998648;28;20393;-34
2023/07/14 11:30:07;;;;;;;5.15;2.47;;;24.20;99.90;;;;;;4996244;28;20056;-34
2023/07/14 11:33:02;;;;;;;4.80;3.10;;;24.20;99.90;;;;;;5000564;28;20053;-34
2023/07/14 11:36:04;;;;;;;3.85;2.03;;;24.30;99.90;;;;;;5000758;28;20057;-34
2023/07/14 11:38:48;;;;;;;5.43;3.10;;;24.30;99.90;;;;;;5001923;28;20058;-34
2023/07/14 11:41:17;;;;;;;7.53;3.10;;;24.20;99.90;;;;;;5004154;28;20046;-34
2023/07/14 11:43:44;;;;;;;4.30;2.63;;;24.00;99.90;;;;;;5003342;28;20053;-35
2023/07/14 11:46:15;;;;;;;4.10;2.15;;;24.00;99.90;;;;;;5000595;28;20042;-34
2023/07/14 11:49:02;;;;;;;5.30;2.67;;;24.00;99.90;;;;;;4997283;28;20188;-34
2023/07/14 11:51:50;;;;;;;4.22;2.10;;;24.10;99.90;;;;;;4999503;28;20100;-34
2023/07/14 11:54:23;;;;;;;5.70;2.50;;;24.00;99.90;;;;;;5000670;28;20060;-34
2023/07/14 11:56:59;;;;;;;4.45;3.00;;;24.20;99.90;;;;;;5014329;28;20429;-34
2023/07/14 11:59:28;;;;;;;6.53;3.60;;;24.30;99.90;;;;;;5015350;28;20046;-34
2023/07/14 12:02:15;;;;;;;5.25;3.05;;;24.40;99.90;;;;;;5010015;28;20510;-35
2023/07/14 12:04:55;;;;;;;5.63;2.80;;;24.30;99.90;;;;;;5001249;28;20547;-34
2023/07/14 12:07:22;;;;;;;5.75;2.00;;;24.20;99.90;;;;;;5001688;28;20507;-34
2023/07/14 12:10:00;;;;;;;4.57;2.38;;;24.10;99.90;;;;;;5007027;28;20056;-34
2023/07/14 12:12:27;;;;;;;4.03;2.00;;;24.20;99.90;;;;;;4999313;28;20049;-34
2023/07/14 12:14:53;;;;;;;3.47;2.30;;;24.30;99.90;;;;;;4997286;28;20160;-35
2023/07/14 12:17:38;;;;;;;4.55;2.17;;;24.40;99.90;;;;;;4998199;28;20149;-34
2023/07/14 12:20:15;;;;;;;5.20;2.47;;;24.40;99.90;;;;;;5006741;28;20107;-34
2023/07/14 12:23:05;;;;;;;5.05;2.50;;;24.40;99.90;;;;;;5009315;28;20116;-34
2023/07/14 12:25:40;;;;;;;3.10;1.48;;;24.50;99.90;;;;;;5007023;28;20045;-34
2023/07/14 12:28:15;;;;;;;3.95;2.00;;;24.60;99.90;;;;;;5001223;28;20096;-35
2023/07/14 12:30:49;;;;;;;5.00;2.20;;;24.70;99.90;;;;;;5008027;28;20048;-34
2023/07/14 12:33:17;;;;;;;5.63;2.00;;;24.90;99.90;;;;;;5006163;28;20056;-34
2023/07/14 12:35:43;;;;;;;5.43;2.13;;;25.20;99.90;;;;;;5011530;28;20403;-35
2023/07/14 12:38:10;;;;;;;5.32;2.47;;;25.30;99.90;;;;;;5005214;28;20045;-35
2023/07/14 12:40:36;;;;;;;3.83;1.90;;;25.30;99.90;;;;;;5006516;28;20065;-35
2023/07/14 12:43:06;;;;;;;5.63;2.20;;;25.30;99.90;;;;;;5003578;28;20108;-35
2023/07/14 12:45:33;;;;;;;7.15;2.15;;;25.20;99.90;;;;;;5005785;28;20060;-34
2023/07/14 12:48:01;;;;;;;6.22;2.10;;;25.00;99.90;;;;;;5000931;28;20104;-34
2023/07/14 12:50:27;;;;;;;4.38;1.77;;;24.80;99.90;;;;;;5002345;28;20058;-34
2023/07/14 12:52:53;;;;;;;4.55;2.10;;;24.60;99.90;;;;;;4996087;28;20546;-36
2023/07/14 12:55:24;;;;;;;6.45;1.90;;;24.50;99.90;;;;;;4998792;28;20057;-35
2023/07/14 12:57:50;;;;;;;4.93;1.73;;;24.50;99.90;;;;;;4999011;28;20080;-35
2023/07/14 13:00:19;;;;;;;2.80;1.30;;;24.50;99.90;;;;;;4997986;28;20049;-35
2023/07/14 13:02:45;;;;;;;3.47;1.88;;;24.60;99.90;;;;;;4997570;28;20069;-35
2023/07/14 13:05:15;;;;;;;5.95;2.78;;;24.60;99.90;;;;;;4997165;28;20053;-35